SHMÚ vydal meteorologické výstrahy na Vietor Zobraziť výstrahy

TAF

Letisková predpoveď TAF

Informácie o správe TAF

21.09.2018 - 20:00 UTC (Včera)

TAF LZSL 212000Z 2121/2206 VRB02KT CAVOK
    BECMG 2123/2201 35006KT 9999 BKN060 BKN080=
TAF LZZI 212000Z 2121/2206 23006KT CAVOK
    BECMG 2121/2123 24004KT 9999 SCT050 BKN090
    TEMPO 2202/2206 30016KT 4500 SHRA BKN025 FEW030CB=

21.09.2018 - 11:00 UTC (Včera)

TAF LZIB 211100Z 2112/2212 17012KT CAVOK
    BECMG 2118/2120 18004KT
    BECMG 2123/2201 34012KT 9999 SCT030 BKN060
    TEMPO 2123/2206 32018G28KT
    TEMPO 2203/2208 7000 RA BKN030 OVC050
    BECMG 2207/2209 30008KT=
TAF LZKZ 211100Z 2112/2212 19010KT CAVOK
    BECMG 2119/2121 21006KT
    BECMG 2204/2206 02010KT 9999 SCT030 BKN050
    TEMPO 2205/2210 02020G30KT 5000 SHRA SCT020 FEW030TCU BKN050
    TEMPO 2210/2212 RA=
TAF LZTT 211100Z 2112/2212 22014KT 9999 SCT060
    BECMG 2118/2120 27005KT CAVOK
    BECMG 2202/2204 9999 SCT025 BKN040
    TEMPO 2204/2209 26015G25KT 4000 SHRA BKN020 FEW030CB
    TEMPO 2209/2211 6000 RA=

skok na menu ↑


skok na začiatok stránky ↑